Language selection

My Weather Profile Weather Topics  | 

Pacific - North Coast: Past 24 Hour Conditions

 

Bonilla Island

11:00 AM PST 27 November 2022
Disclaimer

This table is a summary of hourly weather conditions for the past 24 hours.
Please note that these observations might not always be representative of weather conditions over their associated marine area.

Date / Time
(PST)
Wind(knots) Conditions Visibility(km) Pressure(kPa) Air tempC) Relative humidity(%) Dew pointC)
27 November 2022
11:00 NNE 9 N/A N/A 101.4 3 91 2
10:00 NNW 18 gust 25 N/A N/A 101.4 4 85 2
9:00 N 14 N/A N/A 101.4 4 81 1
8:00 N 13 N/A N/A 101.3 4 84 1
7:00 NNE 11 N/A N/A 101.3 3 92 2
6:00 N 9 N/A N/A 101.2 3 94 2
5:00 NNE 17 gust 24 N/A N/A 101.2 4 91 2
4:00 NNW 16 N/A N/A 101.2 4 86 2
3:00 WNW 17 N/A N/A 101.2 5 84 2
2:00 NW 9 gust 16 N/A N/A 101.2 4 84 2
1:00 W 12 N/A N/A 101.2 5 79 2
0:00 WNW 13 N/A N/A 101.2 5 77 1
26 November 2022
23:00 WNW 15 N/A N/A 101.2 5 74 1
22:00 WNW 16 gust 21 N/A N/A 101.2 5 77 1
21:00 WNW 18 N/A N/A 101.2 4 80 1
20:00 WNW 17 N/A N/A 101.2 4 86 2
19:00 NW 18 gust 23 N/A N/A 101.2 5 80 1
18:00 WNW 24 gust 30 N/A N/A N/A 5 77 1
17:00 WNW 20 gust 26 N/A N/A 101.1 4 85 2
16:00 W 19 N/A N/A 101.0 4 86 2
15:00 WNW 19 gust 26 N/A N/A 101.0 5 75 1
14:00 WNW 25 N/A N/A 101.0 5 78 1
13:00 WNW 18 gust 29 N/A N/A 100.9 5 87 3
12:00 WNW 19 gust 28 N/A N/A 100.9 7 72 2
11:00 WNW 25 gust 37 N/A N/A 100.8 6 83 4

Zoom-in to make a selection

Map of Pacific - North Coast marine weather areas Middle Nomad - 46004 South Nomad - 46036 Dixon Entrance Central - 46145 South Moresby - 46147 Nanakwa Shoal - 46181 North Hecate Strait - 46183 North Nomad - 46184 South Hecate Strait - 46185 West Sea Otter - 46204 West Dixon Entrance - 46205 East Dellwood - 46207 West Moresby - 46208 Sartine Island Cape St.James Kindakun Rocks Langara Island Masset Municipal Airport Rose Spit Sandspit Airport Bella Bella Airport Bella Coola Airport Bonilla Island Cathedral Point Cumshewa Island Grey Islet Holland Rock Lucy Islands Lightstation Prince Rupert Airport
Legend:
buoy Buoy
land station Land Station

Pacific - North Coast Area

Another Region

What we are doing

Date modified: